Time;durP1;ratioP1;P1;durP2;ratioP2;P2;SDS_P1;SDS_P2;PMS_P1;PMS_P2;Temp;Humidity;BMP_temperature;BMP_pressure;BME280_temperature;BME280_humidity;BME280_pressure;Samples;Min_cycle;Max_cycle;Signal;HPM_P1;HPM_P2
2021/12/29 01:34:21;;;;;;;;;;;;;;;;;;;;;
2021/12/29 01:41:56;586081.00;1.95;1010.19;15573.00;0.05;27.60;;;;;12.20;1.00;;;;;;2278493;61;1185;-84
2021/12/29 01:44:26;465069.00;1.55;801.71;0.00;0.00;0.62;;;;;11.90;1.00;;;;;;2279258;61;1014;-85
2021/12/29 01:46:55;408409.00;1.36;704.26;0.00;0.00;0.62;;;;;11.80;1.00;;;;;;2280534;61;906;-85
2021/12/29 01:49:22;709614.00;2.37;1223.91;104279.00;0.35;180.96;;;;;11.80;1.00;;;;;;2280495;61;1914;-84
2021/12/29 01:51:59;587934.00;1.96;1013.39;88345.00;0.29;153.45;;;;;11.80;1.00;;;;;;2273362;61;1052;-84
2021/12/29 01:54:26;548165.00;1.83;944.80;85436.00;0.28;148.43;;;;;12.10;1.00;;;;;;2279987;61;1699;-85
2021/12/29 01:56:57;486515.00;1.62;838.61;87971.00;0.29;152.80;;;;;11.90;1.00;;;;;;2280481;61;945;-85
2021/12/29 01:59:25;326974.00;1.09;564.29;88186.00;0.29;153.18;;;;;11.80;1.00;;;;;;2280429;61;1324;-85
2021/12/29 02:01:54;309788.00;1.03;534.75;82751.00;0.28;143.79;;;;;11.60;1.00;;;;;;2280515;61;941;-84
2021/12/29 02:04:21;272926.00;0.91;471.37;7346.00;0.02;13.35;;;;;11.60;1.00;;;;;;2280396;61;1050;-85
2021/12/29 02:06:49;91408.00;0.30;158.74;0.00;0.00;0.62;;;;;11.60;1.00;;;;;;2280622;61;1114;-85
2021/12/29 02:09:16;257671.00;0.86;445.14;20405.00;0.07;35.97;;;;;11.80;1.00;;;;;;2281146;61;1388;-84
2021/12/29 02:11:44;149280.00;0.50;258.57;0.00;0.00;0.62;;;;;11.80;1.00;;;;;;2281246;61;1997;-85
2021/12/29 02:14:13;136895.00;0.46;237.22;0.00;0.00;0.62;;;;;11.80;1.00;;;;;;2280847;61;1033;-84
2021/12/29 02:16:40;266813.00;0.89;460.86;0.00;0.00;0.62;;;;;12.00;1.00;;;;;;2281238;61;937;-84
2021/12/29 02:19:09;175115.00;0.58;303.08;0.00;0.00;0.62;;;;;12.00;1.00;;;;;;2281130;61;1248;-84
2021/12/29 02:21:43;163994.00;0.55;283.92;0.00;0.00;0.62;;;;;11.80;1.00;;;;;;2281188;61;887;-84
2021/12/29 02:24:19;263213.00;0.88;454.67;0.00;0.00;0.62;;;;;11.80;1.00;;;;;;2281208;61;986;-84
2021/12/29 02:26:47;228471.00;0.76;394.92;0.00;0.00;0.62;;;;;11.70;1.00;;;;;;2280657;61;1783;-85
2021/12/29 02:29:17;319110.00;1.06;550.77;0.00;0.00;0.62;;;;;11.80;1.00;;;;;;2281105;61;1331;-84
2021/12/29 02:31:45;280247.00;0.93;483.96;0.00;0.00;0.62;;;;;11.90;1.00;;;;;;2281050;61;2052;-86
2021/12/29 02:34:15;216434.00;0.72;374.21;0.00;0.00;0.62;;;;;12.00;1.00;;;;;;2281105;61;993;-84
2021/12/29 02:36:45;125087.00;0.42;216.86;0.00;0.00;0.62;;;;;12.20;1.00;;;;;;2280382;61;981;-85
2021/12/29 02:39:22;251095.00;0.84;433.83;0.00;0.00;0.62;;;;;12.30;1.00;;;;;;2281024;61;1546;-84
2021/12/29 02:41:54;154509.00;0.52;267.58;0.00;0.00;0.62;;;;;12.20;1.00;;;;;;2285019;61;1109;-85
2021/12/29 02:44:25;486941.00;1.62;839.34;37289.00;0.12;65.20;;;;;12.30;1.00;;;;;;2285196;61;1186;-87
2021/12/29 02:46:53;139680.00;0.47;242.02;0.00;0.00;0.62;;;;;12.40;1.00;;;;;;2285187;61;1395;-84
2021/12/29 02:49:21;466782.00;1.56;804.65;0.00;0.00;0.62;;;;;12.60;1.00;;;;;;2284420;60;1418;-86
2021/12/29 02:51:49;473007.00;1.58;815.36;17465.00;0.06;30.88;;;;;12.80;1.00;;;;;;2285171;61;2001;-86
2021/12/29 02:54:17;743176.00;2.48;1282.19;52678.00;0.18;91.82;;;;;12.90;1.00;;;;;;2272489;61;966;-85
2021/12/29 02:56:47;567545.00;1.89;978.21;42687.00;0.14;74.54;;;;;12.40;1.00;;;;;;2272085;61;1130;-86
2021/12/29 02:59:14;651656.00;2.17;1123.50;112144.00;0.37;194.53;;;;;12.40;1.00;;;;;;2272416;61;1402;-85
2021/12/29 03:01:41;383765.00;1.28;661.90;88146.00;0.29;153.11;;;;;12.40;1.00;;;;;;2272516;61;993;-85
2021/12/29 03:04:08;447566.00;1.49;771.60;85414.00;0.28;148.39;;;;;12.30;1.00;;;;;;2272389;61;1754;-86
2021/12/29 03:06:35;217056.00;0.72;375.28;0.00;0.00;0.62;;;;;12.10;1.00;;;;;;2272489;61;1105;-86
2021/12/29 03:09:06;322528.00;1.08;556.64;0.00;0.00;0.62;;;;;12.40;1.00;;;;;;2272387;61;1315;-85
2021/12/29 03:11:33;264027.00;0.88;456.07;24721.00;0.08;43.44;;;;;12.60;1.00;;;;;;2273962;61;1919;-85
2021/12/29 03:14:00;105876.00;0.35;183.71;0.00;0.00;0.62;;;;;12.80;1.00;;;;;;2285058;61;1018;-86
2021/12/29 03:16:27;108005.00;0.36;187.39;0.00;0.00;0.62;;;;;12.70;1.00;;;;;;2284977;61;1613;-85
2021/12/29 03:18:56;316047.00;1.05;545.50;22711.00;0.08;39.96;;;;;12.90;1.00;;;;;;2276270;61;1720;-84
2021/12/29 03:21:23;448728.00;1.50;773.59;0.00;0.00;0.62;;;;;12.40;1.00;;;;;;2276468;61;1031;-85
2021/12/29 03:23:51;126853.00;0.42;219.90;0.00;0.00;0.62;;;;;12.50;1.00;;;;;;2276450;61;1106;-86
2021/12/29 03:26:19;174179.00;0.58;301.46;0.00;0.00;0.62;;;;;13.00;1.00;;;;;;2276349;61;1696;-86
2021/12/29 03:28:46;239543.00;0.80;413.97;0.00;0.00;0.62;;;;;12.80;1.00;;;;;;2276454;61;1040;-86
2021/12/29 03:31:15;320752.00;1.07;553.59;0.00;0.00;0.62;;;;;13.00;1.00;;;;;;2276329;61;2000;-86
2021/12/29 03:33:44;218401.00;0.73;377.59;0.00;0.00;0.62;;;;;12.70;1.00;;;;;;2276400;61;1716;-86
2021/12/29 03:36:12;263370.00;0.88;454.94;0.00;0.00;0.62;;;;;12.80;1.00;;;;;;2277746;61;1573;-85
2021/12/29 03:38:41;231003.00;0.77;399.27;0.00;0.00;0.62;;;;;13.00;1.00;;;;;;2285035;61;1062;-85
2021/12/29 03:41:10;318178.00;1.06;549.17;0.00;0.00;0.62;;;;;12.90;1.00;;;;;;2284918;61;1537;-86
2021/12/29 03:43:40;441835.00;1.47;761.74;14402.00;0.05;25.57;;;;;12.60;1.00;;;;;;2284929;61;993;-86
2021/12/29 03:46:08;460673.00;1.54;794.14;41517.00;0.14;72.51;;;;;12.50;1.00;;;;;;2285004;61;997;-85
2021/12/29 03:48:38;449862.00;1.50;775.55;27733.00;0.09;48.66;;;;;12.50;1.00;;;;;;2284967;61;1132;-85
2021/12/29 03:51:06;678708.00;2.26;1170.34;109483.00;0.36;189.94;;;;;12.30;1.00;;;;;;2284973;61;2006;-85
2021/12/29 03:53:34;513766.00;1.71;885.53;109325.00;0.36;189.67;;;;;12.20;1.00;;;;;;2284983;61;1057;-85
2021/12/29 03:56:02;437162.00;1.46;753.70;88180.00;0.29;153.16;;;;;12.10;1.00;;;;;;2285016;61;952;-86
2021/12/29 03:58:30;354312.00;1.18;611.27;87049.00;0.29;151.21;;;;;12.30;1.00;;;;;;2284959;61;954;-86
2021/12/29 04:01:00;451648.00;1.51;778.62;10515.00;0.04;18.84;;;;;12.60;1.00;;;;;;2284880;61;1292;-85
2021/12/29 04:03:28;411746.00;1.37;710.00;27281.00;0.09;47.88;;;;;12.90;1.00;;;;;;2284895;61;944;-86
2021/12/29 04:05:55;208988.00;0.70;361.39;0.00;0.00;0.62;;;;;12.80;1.00;;;;;;2284974;61;902;-85
2021/12/29 04:08:22;258314.00;0.86;446.25;0.00;0.00;0.62;;;;;12.50;1.00;;;;;;2284872;61;1021;-86
2021/12/29 04:10:49;179348.00;0.60;310.37;0.00;0.00;0.62;;;;;12.20;1.00;;;;;;2284851;61;1919;-85
2021/12/29 04:13:16;127200.00;0.42;220.50;0.00;0.00;0.62;;;;;12.20;1.00;;;;;;2284938;61;1032;-86
2021/12/29 04:15:43;134433.00;0.45;232.97;0.00;0.00;0.62;;;;;12.20;1.00;;;;;;2284906;61;997;-86
2021/12/29 04:18:26;354079.00;1.18;610.87;0.00;0.00;0.62;;;;;12.30;1.00;;;;;;2284950;61;809;-85
2021/12/29 04:20:54;116882.00;0.39;202.70;0.00;0.00;0.62;;;;;12.30;1.00;;;;;;2284379;61;1663;-85
2021/12/29 04:23:23;351461.00;1.17;606.37;47676.00;0.16;83.17;;;;;12.30;1.00;;;;;;2284900;61;977;-86
2021/12/29 04:25:54;300007.00;1.00;517.93;0.00;0.00;0.62;;;;;12.20;1.00;;;;;;2284921;61;1043;-85
2021/12/29 04:28:23;133743.00;0.45;231.78;0.00;0.00;0.62;;;;;12.30;1.00;;;;;;2284898;61;961;-85
2021/12/29 04:30:53;172349.00;0.57;298.31;0.00;0.00;0.62;;;;;12.20;1.00;;;;;;2284837;61;2003;-85
2021/12/29 04:33:22;149393.00;0.50;258.76;0.00;0.00;0.62;;;;;12.00;1.00;;;;;;2281010;61;1033;-85
2021/12/29 04:35:49;445776.00;1.49;768.52;0.00;0.00;0.62;;;;;12.10;1.00;;;;;;2277646;61;1018;-85
2021/12/29 04:38:16;271426.00;0.90;468.80;2284.00;0.01;4.58;;;;;12.20;1.00;;;;;;2280206;61;964;-84
2021/12/29 04:40:43;316740.00;1.06;546.69;0.00;0.00;0.62;;;;;11.80;1.00;;;;;;2280286;61;1403;-85
2021/12/29 04:43:10;392214.00;1.31;676.42;25271.00;0.08;44.40;;;;;11.80;1.00;;;;;;2280206;61;921;-84
2021/12/29 04:45:38;562683.00;1.88;969.83;0.00;0.00;0.62;;;;;12.00;1.00;;;;;;2280202;61;1076;-84
2021/12/29 04:48:11;503539.00;1.68;867.92;16103.00;0.05;28.52;;;;;12.10;1.00;;;;;;2276821;61;981;-84
2021/12/29 04:50:42;629925.00;2.10;1085.92;110891.00;0.37;192.37;;;;;12.00;1.00;;;;;;2276025;61;1919;-85
2021/12/29 04:53:10;490128.00;1.63;844.83;95181.00;0.32;165.25;;;;;11.90;1.00;;;;;;2276129;61;960;-84
2021/12/29 04:55:39;521762.00;1.74;899.30;85454.00;0.28;148.46;;;;;12.10;1.00;;;;;;2276939;61;1040;-85
2021/12/29 04:58:07;515618.00;1.72;888.72;84649.00;0.28;147.07;;;;;12.20;1.00;;;;;;2280212;61;1260;-84
2021/12/29 05:00:35;520920.00;1.74;897.85;112858.00;0.38;195.76;;;;;11.90;1.00;;;;;;2280166;61;1540;-85
2021/12/29 05:03:03;276695.00;0.92;477.86;0.00;0.00;0.62;;;;;11.90;1.00;;;;;;2280189;61;1052;-84
2021/12/29 05:08:26;277201.00;0.92;478.73;103624.00;0.35;179.83;;;;;11.90;1.00;;;;;;2281438;61;1762;-84
2021/12/29 05:10:59;617266.00;2.06;1064.04;86172.00;0.29;149.70;;;;;11.50;1.00;;;;;;2277520;61;1997;-85
2021/12/29 05:13:27;134594.00;0.45;233.25;0.00;0.00;0.62;;;;;11.50;1.00;;;;;;2284716;61;1032;-84
2021/12/29 05:15:55;200804.00;0.67;347.31;0.00;0.00;0.62;;;;;11.50;1.00;;;;;;2284758;61;1029;-84
2021/12/29 05:18:23;79388.00;0.26;137.98;0.00;0.00;0.62;;;;;11.50;1.00;;;;;;2284493;61;920;-85
2021/12/29 05:20:51;232875.00;0.78;402.49;0.00;0.00;0.62;;;;;11.50;1.00;;;;;;2277467;61;1307;-84
2021/12/29 05:23:18;122716.00;0.41;212.77;0.00;0.00;0.62;;;;;11.40;1.00;;;;;;2284676;61;1085;-84
2021/12/29 05:25:46;214117.00;0.71;370.22;0.00;0.00;0.62;;;;;12.00;1.00;;;;;;2284669;61;1138;-86
2021/12/29 05:28:13;112113.00;0.37;194.48;0.00;0.00;0.62;;;;;12.30;1.00;;;;;;2284602;61;1654;-87
2021/12/29 05:30:40;330619.00;1.10;570.55;60075.00;0.20;104.61;;;;;12.50;1.00;;;;;;2284578;60;1998;-86
2021/12/29 05:33:07;340941.00;1.14;588.29;0.00;0.00;0.62;;;;;12.70;1.00;;;;;;2284686;61;1009;-86
2021/12/29 05:35:34;217647.00;0.73;376.29;0.00;0.00;0.62;;;;;12.90;1.00;;;;;;2284700;61;1124;-86
2021/12/29 05:38:04;251574.00;0.84;434.66;0.00;0.00;0.62;;;;;12.80;1.00;;;;;;2284643;61;926;-85
2021/12/29 05:40:31;298619.00;1.00;515.55;0.00;0.00;0.62;;;;;12.30;1.00;;;;;;2284758;60;1533;-84
2021/12/29 05:42:59;211421.00;0.70;365.58;0.00;0.00;0.62;;;;;12.10;1.00;;;;;;2285397;61;925;-85
2021/12/29 05:45:28;525523.00;1.75;905.78;34992.00;0.12;61.22;;;;;12.20;1.00;;;;;;2284784;61;1522;-84
2021/12/29 05:47:57;633920.00;2.11;1092.83;28245.00;0.09;49.55;;;;;11.90;1.00;;;;;;2285399;61;965;-84
2021/12/29 05:50:27;322604.00;1.08;556.77;0.00;0.00;0.62;;;;;12.00;1.00;;;;;;2285254;60;1451;-83
2021/12/29 05:52:54;469472.00;1.56;809.28;0.00;0.00;0.62;;;;;11.80;2.00;;;;;;2285165;61;1932;-85
2021/12/29 05:55:23;628645.00;2.10;1083.71;119769.00;0.40;207.68;;;;;11.70;1.00;;;;;;2285328;61;954;-83
2021/12/29 05:57:50;447394.00;1.49;771.30;80557.00;0.27;140.00;;;;;11.60;1.00;;;;;;2285352;61;902;-83
2021/12/29 06:00:19;568503.00;1.90;979.86;93100.00;0.31;161.66;;;;;11.60;1.60;;;;;;2285173;60;1255;-84
2021/12/29 06:02:47;394182.00;1.31;679.80;84795.00;0.28;147.32;;;;;11.80;1.00;;;;;;2285231;61;1042;-85
2021/12/29 06:05:23;38652.00;0.13;67.56;0.00;0.00;0.62;;;;;11.70;1.00;;;;;;2285403;61;1133;-84
2021/12/29 06:07:50;0.00;0.00;0.62;0.00;0.00;0.62;;;;;11.60;1.50;;;;;;2285071;61;974;-84
2021/12/29 06:10:17;8608.00;0.03;15.54;0.00;0.00;0.62;;;;;11.40;2.90;;;;;;2285301;60;1391;-83
2021/12/29 06:12:45;23452.00;0.08;41.25;0.00;0.00;0.62;;;;;11.60;3.20;;;;;;2285301;61;2010;-84
2021/12/29 06:15:12;49917.00;0.17;87.04;0.00;0.00;0.62;;;;;11.50;2.90;;;;;;2285293;61;1010;-84
2021/12/29 06:17:40;171603.00;0.57;297.03;27950.00;0.09;49.03;;;;;11.50;2.70;;;;;;2285303;61;1149;-83
2021/12/29 06:20:10;59573.00;0.20;103.74;0.00;0.00;0.62;;;;;11.70;2.10;;;;;;2285253;60;1414;-86
2021/12/29 06:22:37;89728.00;0.30;155.84;0.00;0.00;0.62;;;;;12.00;1.00;;;;;;2285241;61;1102;-85
2021/12/29 06:25:06;90965.00;0.30;157.97;0.00;0.00;0.62;;;;;12.00;1.40;;;;;;2285280;61;1070;-84
2021/12/29 06:27:33;123865.00;0.41;214.75;40125.00;0.13;70.10;;;;;11.90;1.00;;;;;;2285335;61;915;-84
2021/12/29 06:30:02;5664.00;0.02;10.44;0.00;0.00;0.62;;;;;11.70;2.00;;;;;;2285181;60;1416;-84
2021/12/29 06:32:29;95307.00;0.32;165.47;0.00;0.00;0.62;;;;;11.90;1.70;;;;;;2285088;61;1931;-85
2021/12/29 06:34:56;98806.00;0.33;171.51;0.00;0.00;0.62;;;;;12.10;1.00;;;;;;2285250;61;891;-84
2021/12/29 06:37:23;66146.00;0.22;115.10;0.00;0.00;0.62;;;;;12.00;1.00;;;;;;2285234;61;1019;-85
2021/12/29 06:39:50;50325.00;0.17;87.75;0.00;0.00;0.62;;;;;12.00;1.70;;;;;;2278085;61;1435;-84
2021/12/29 06:42:18;50056.00;0.17;87.28;0.00;0.00;0.62;;;;;11.90;1.00;;;;;;2285172;61;1048;-84
2021/12/29 06:44:47;98229.00;0.33;170.51;0.00;0.00;0.62;;;;;12.10;1.00;;;;;;2285228;61;1038;-85
2021/12/29 06:47:17;175680.00;0.59;304.05;30828.00;0.10;54.02;;;;;12.30;1.00;;;;;;2284908;61;1705;-84
2021/12/29 06:49:44;24827.00;0.08;43.63;0.00;0.00;0.62;;;;;12.30;1.00;;;;;;2285172;61;1425;-84
2021/12/29 06:52:12;18030.00;0.06;31.86;0.00;0.00;0.62;;;;;12.10;1.00;;;;;;2284948;61;1911;-84
2021/12/29 06:54:39;12218.00;0.04;21.79;0.00;0.00;0.62;;;;;12.20;1.00;;;;;;2285205;61;994;-83
2021/12/29 06:57:06;24796.00;0.08;43.57;0.00;0.00;0.62;;;;;12.40;1.00;;;;;;2285177;61;1109;-83
2021/12/29 06:59:33;0.00;0.00;0.62;0.00;0.00;0.62;;;;;12.40;1.00;;;;;;2285143;60;1406;-84
2021/12/29 07:02:01;20351.00;0.07;35.88;0.00;0.00;0.62;;;;;12.50;1.00;;;;;;2285195;61;961;-85
2021/12/29 07:04:29;91765.00;0.31;159.36;0.00;0.00;0.62;;;;;12.60;1.00;;;;;;2284838;61;1023;-84
2021/12/29 07:06:57;42819.00;0.14;74.77;0.00;0.00;0.62;;;;;12.40;1.00;;;;;;2285151;61;997;-85
2021/12/29 07:09:24;62383.00;0.21;108.60;0.00;0.00;0.62;;;;;12.60;1.00;;;;;;2285138;60;1465;-84
2021/12/29 07:11:52;103211.00;0.34;179.11;0.00;0.00;0.62;;;;;12.40;1.00;;;;;;2280519;61;2025;-84
2021/12/29 07:14:20;85872.00;0.29;149.18;0.00;0.00;0.62;;;;;12.10;1.00;;;;;;2280412;61;1762;-85
2021/12/29 07:16:48;20261.00;0.07;35.72;0.00;0.00;0.62;;;;;12.00;1.00;;;;;;2280577;61;1075;-84
2021/12/29 07:19:16;29262.00;0.10;51.31;0.00;0.00;0.62;;;;;12.10;1.00;;;;;;2280566;61;1450;-84
2021/12/29 07:21:45;24225.00;0.08;42.59;0.00;0.00;0.62;;;;;12.50;1.00;;;;;;2280600;61;1011;-84
2021/12/29 07:24:12;14912.00;0.05;26.46;0.00;0.00;0.62;;;;;12.80;1.00;;;;;;2280075;61;1019;-84
2021/12/29 07:26:40;195071.00;0.65;337.44;0.00;0.00;0.62;;;;;12.70;1.00;;;;;;2280397;61;1014;-84
2021/12/29 07:29:08;151830.00;0.51;262.96;0.00;0.00;0.62;;;;;12.70;1.00;;;;;;2280933;60;1382;-85
2021/12/29 07:31:36;154540.00;0.52;267.63;0.00;0.00;0.62;;;;;12.50;1.00;;;;;;2284982;61;1915;-86
2021/12/29 07:34:03;91633.00;0.31;159.13;0.00;0.00;0.62;;;;;12.40;1.00;;;;;;2284987;61;1191;-86
2021/12/29 07:36:30;56719.00;0.19;98.80;0.00;0.00;0.62;;;;;12.40;1.00;;;;;;2285026;61;1024;-86
2021/12/29 07:38:58;0.00;0.00;0.62;0.00;0.00;0.62;;;;;12.30;1.00;;;;;;2285011;61;1273;-85
2021/12/29 07:50:10;696361.00;2.32;1200.93;0.00;0.00;0.62;;;;;13.00;1.00;;;;;;2264017;61;1400;-91
2021/12/29 07:59:15;397628.00;1.33;685.73;75144.00;0.25;130.65;;;;;12.90;1.00;;;;;;2252041;61;1091;-89
2021/12/29 08:07:26;;;;;;;;;;;;;;;;;;;;;
2021/12/29 08:11:05;;;;;;;;;;;;;;;;;;;;;
2021/12/29 08:14:24;;;;;;;;;;;;;;;;;;;;;
2021/12/29 08:17:10;304844.00;1.02;526.25;0.00;0.00;0.62;;;;;13.00;1.00;;;;;;2252140;61;1009;-91
2021/12/29 08:20:02;395203.00;1.32;681.56;0.00;0.00;0.62;;;;;13.10;1.00;;;;;;2252063;61;1374;-89
2021/12/29 08:22:40;284879.00;0.95;491.93;0.00;0.00;0.62;;;;;12.90;1.00;;;;;;2236156;62;1045;-90
2021/12/29 08:55:46;1305085.00;4.35;2281.41;85151.00;0.28;147.93;;;;;12.70;1.00;;;;;;2293973;60;1248;-90
2021/12/29 08:58:19;502336.00;1.67;865.85;0.00;0.00;0.62;;;;;12.20;1.00;;;;;;2275349;61;1044;-88
2021/12/29 09:06:02;945711.00;3.15;1636.55;0.00;0.00;0.62;;;;;13.00;1.00;;;;;;2273263;61;1676;-90
2021/12/29 09:08:30;257353.00;0.86;444.60;0.00;0.00;0.62;;;;;12.90;1.00;;;;;;2271757;61;916;-90
2021/12/29 09:11:07;430289.00;1.43;741.88;0.00;0.00;0.62;;;;;13.20;1.00;;;;;;2263040;61;1298;-90
2021/12/29 09:16:19;739069.00;2.46;1275.06;0.00;0.00;0.62;;;;;13.00;1.00;;;;;;2273156;61;1400;-90
2021/12/29 09:19:00;267511.00;0.89;462.06;0.00;0.00;0.62;;;;;13.10;1.00;;;;;;2261356;61;1015;-91
2021/12/29 09:24:54;363877.00;1.21;627.71;0.00;0.00;0.62;;;;;13.50;1.00;;;;;;2263203;61;2006;-91
2021/12/29 09:27:24;852963.00;2.84;1473.65;94781.00;0.32;164.56;;;;;13.60;1.00;;;;;;2247965;61;985;-90
2021/12/29 09:30:02;457087.00;1.52;787.97;106847.00;0.36;185.39;;;;;13.40;1.00;;;;;;2251150;61;1302;-89
2021/12/29 09:33:07;888027.00;2.96;1535.10;147153.00;0.49;254.90;;;;;13.50;1.00;;;;;;2251230;61;1031;-89
2021/12/29 09:35:52;521270.00;1.74;898.45;0.00;0.00;0.62;;;;;13.50;1.00;;;;;;2251210;61;1135;-88
2021/12/29 09:38:38;;;;;;;;;;;;;;;;;;;;;
2021/12/29 09:41:22;586621.00;1.96;1011.12;0.00;0.00;0.62;;;;;13.80;1.00;;;;;;2239104;62;1312;-92
2021/12/29 09:44:02;634435.00;2.11;1093.72;0.00;0.00;0.62;;;;;13.70;1.00;;;;;;2235338;62;1999;-91
2021/12/29 09:46:31;569651.00;1.90;981.84;0.00;0.00;0.62;;;;;13.90;1.00;;;;;;2238950;62;1001;-91
2021/12/29 09:49:01;390918.00;1.30;674.19;0.00;0.00;0.62;;;;;14.20;1.00;;;;;;2235238;62;1118;-91
2021/12/29 09:51:31;517098.00;1.72;891.27;0.00;0.00;0.62;;;;;14.10;1.00;;;;;;2227361;62;1309;-88
2021/12/29 09:54:00;283601.00;0.95;489.73;0.00;0.00;0.62;;;;;14.00;1.00;;;;;;2227448;62;1050;-89
2021/12/29 09:56:30;333322.00;1.11;575.20;0.00;0.00;0.62;;;;;14.10;1.00;;;;;;2224905;62;1073;-91
2021/12/29 09:59:00;351093.00;1.17;605.74;0.00;0.00;0.62;;;;;14.30;1.00;;;;;;2228476;62;1082;-90
2021/12/29 10:01:31;482849.00;1.61;832.30;0.00;0.00;0.62;;;;;14.20;1.00;;;;;;2242834;61;1337;-89
2021/12/29 10:03:58;385842.00;1.29;665.47;0.00;0.00;0.62;;;;;13.70;1.00;;;;;;2241758;61;2005;-89
2021/12/29 10:06:28;421031.00;1.40;725.96;0.00;0.00;0.62;;;;;13.70;1.00;;;;;;2241291;61;1078;-86
2021/12/29 10:09:22;290880.00;0.97;502.24;0.00;0.00;0.62;;;;;13.50;1.00;;;;;;2244163;61;1020;-88
2021/12/29 10:12:19;;;;;;;;;;;;;;;;;;;;;
2021/12/29 10:17:29;1189636.00;3.97;2071.49;102413.00;0.34;177.74;;;;;14.10;1.00;;;;;;2267347;61;1239;-88
2021/12/29 10:20:21;547242.00;1.82;943.21;0.00;0.00;0.62;;;;;14.10;1.00;;;;;;2260256;61;1337;-90
2021/12/29 10:23:02;347774.00;1.16;600.04;0.00;0.00;0.62;;;;;14.30;1.00;;;;;;2256327;61;1915;-89
2021/12/29 10:25:33;236566.00;0.79;408.84;0.00;0.00;0.62;;;;;14.20;1.00;;;;;;2256370;61;1036;-89
2021/12/29 10:30:59;302611.00;1.01;522.41;0.00;0.00;0.62;;;;;13.90;1.00;;;;;;2248247;61;1212;-90
2021/12/29 10:33:42;466664.00;1.56;804.45;0.00;0.00;0.62;;;;;13.90;1.00;;;;;;2248224;61;970;-90
2021/12/29 10:36:18;398164.00;1.33;686.65;0.00;0.00;0.62;;;;;14.30;1.00;;;;;;2241756;61;1041;-90
2021/12/29 10:38:51;320833.00;1.07;553.73;0.00;0.00;0.62;;;;;14.20;1.00;;;;;;2243467;61;1020;-89
2021/12/29 10:41:34;397610.00;1.33;685.70;0.00;0.00;0.62;;;;;14.50;1.00;;;;;;2246965;61;1232;-90
2021/12/29 10:44:12;304476.00;1.01;525.61;0.00;0.00;0.62;;;;;14.30;1.00;;;;;;2236373;62;1920;-89
2021/12/29 10:46:58;375735.00;1.25;648.09;0.00;0.00;0.62;;;;;14.10;1.00;;;;;;2236335;62;971;-89
2021/12/29 10:49:33;344464.00;1.15;594.35;0.00;0.00;0.62;;;;;14.30;1.00;;;;;;2236428;62;1019;-90
2021/12/29 10:52:16;444247.00;1.48;765.89;99055.00;0.33;171.94;;;;;14.60;1.00;;;;;;2241957;61;1062;-90
2021/12/29 10:54:54;562688.00;1.88;969.84;88973.00;0.30;154.53;;;;;14.60;1.00;;;;;;2236427;62;992;-89
2021/12/29 10:57:27;759452.00;2.53;1310.50;83716.00;0.28;145.46;;;;;14.70;1.00;;;;;;2238114;62;1022;-91
2021/12/29 10:59:58;610156.00;2.03;1051.76;60881.00;0.20;106.00;;;;;14.80;1.00;;;;;;2236324;62;1569;-90
2021/12/29 11:03:11;539731.00;1.80;930.26;87671.00;0.29;152.29;;;;;14.80;1.00;;;;;;2235323;62;986;-90
2021/12/29 11:05:58;468181.00;1.56;807.06;0.00;0.00;0.62;;;;;14.90;1.00;;;;;;2220646;62;1111;-91
2021/12/29 11:08:33;352919.00;1.18;608.88;0.00;0.00;0.62;;;;;15.00;1.00;;;;;;2220434;62;992;-90
2021/12/29 11:11:05;329281.00;1.10;568.25;0.00;0.00;0.62;;;;;15.30;1.00;;;;;;2220696;62;1343;-90
2021/12/29 11:13:40;405973.00;1.35;700.07;0.00;0.00;0.62;;;;;14.90;1.00;;;;;;2224137;62;1193;-91
2021/12/29 11:16:11;304743.00;1.02;526.07;0.00;0.00;0.62;;;;;14.70;1.00;;;;;;2219899;62;990;-90
2021/12/29 11:18:48;277357.00;0.92;478.99;0.00;0.00;0.62;;;;;14.50;1.00;;;;;;2223939;62;1026;-90
2021/12/29 11:21:26;415894.00;1.39;717.13;0.00;0.00;0.62;;;;;14.70;1.00;;;;;;2220127;62;1359;-91
2021/12/29 11:24:07;;;;;;;;;;;;;;;;;;;;;
2021/12/29 11:26:35;261751.00;0.87;452.16;0.00;0.00;0.62;;;;;14.90;1.00;;;;;;2222900;62;1155;-90
2021/12/29 11:29:34;426603.00;1.42;735.54;0.00;0.00;0.62;;;;;15.20;1.00;;;;;;2229067;61;1417;-92
2021/12/29 11:32:12;314357.00;1.05;542.60;0.00;0.00;0.62;;;;;14.80;1.00;;;;;;2236398;62;1102;-90
2021/12/29 11:34:43;345709.00;1.15;596.49;91475.00;0.30;158.85;;;;;15.10;1.00;;;;;;2237974;62;979;-90
2021/12/29 11:37:15;403669.00;1.35;696.11;62482.00;0.21;108.77;;;;;15.20;1.00;;;;;;2232316;62;985;-90
2021/12/29 11:39:54;534714.00;1.78;921.61;87527.00;0.29;152.04;;;;;15.00;1.00;;;;;;2236242;61;1421;-91
2021/12/29 11:42:26;403440.00;1.34;695.72;74245.00;0.25;129.10;;;;;14.90;1.00;;;;;;2236081;62;987;-90
2021/12/29 11:45:03;565772.00;1.89;975.15;96793.00;0.32;168.04;;;;;15.10;1.00;;;;;;2233056;62;1921;-89
2021/12/29 11:47:32;894137.00;2.98;1545.82;145895.00;0.49;252.73;;;;;15.30;1.00;;;;;;2233126;62;1006;-90
2021/12/29 11:50:02;511949.00;1.71;882.40;78848.00;0.26;137.05;;;;;15.60;1.00;;;;;;2232268;62;1371;-89
2021/12/29 11:52:59;665457.00;2.22;1147.39;90764.00;0.30;157.63;;;;;15.70;1.00;;;;;;2233917;62;1028;-91
2021/12/29 11:55:34;409831.00;1.37;706.71;0.00;0.00;0.62;;;;;15.90;1.00;;;;;;2226674;62;992;-91
2021/12/29 11:58:28;539937.00;1.80;930.61;0.00;0.00;0.62;;;;;15.70;1.00;;;;;;2221657;62;1063;-89
2021/12/29 12:01:11;729165.00;2.43;1257.85;0.00;0.00;0.62;;;;;15.70;1.00;;;;;;2223804;62;1372;-90
2021/12/29 12:03:45;389236.00;1.30;671.30;0.00;0.00;0.62;;;;;15.70;1.00;;;;;;2216730;62;1999;-90
2021/12/29 12:06:34;439021.00;1.46;756.90;0.00;0.00;0.62;;;;;15.50;1.00;;;;;;2216792;62;1064;-89
2021/12/29 12:09:17;485571.00;1.62;836.99;0.00;0.00;0.62;;;;;15.30;1.00;;;;;;2225379;62;1066;-89
2021/12/29 12:11:53;469621.00;1.57;809.54;0.00;0.00;0.62;;;;;15.10;1.00;;;;;;2228303;62;1421;-89
2021/12/29 12:14:24;495188.00;1.65;853.54;51625.00;0.17;90.00;;;;;15.10;1.00;;;;;;2235053;62;1090;-89
2021/12/29 12:16:54;467083.00;1.56;805.17;0.00;0.00;0.62;;;;;15.10;1.00;;;;;;2242777;61;1058;-90
2021/12/29 12:19:23;292839.00;0.98;505.61;0.00;0.00;0.62;;;;;15.30;1.00;;;;;;2243940;61;950;-90
2021/12/29 12:22:02;537009.00;1.79;925.57;10975.00;0.04;19.64;;;;;15.30;1.00;;;;;;2248285;61;1346;-89
2021/12/29 12:24:31;563033.00;1.88;970.43;0.00;0.00;0.62;;;;;15.30;1.00;;;;;;2251958;61;1999;-90
2021/12/29 12:27:03;352846.00;1.18;608.75;0.00;0.00;0.62;;;;;15.20;1.00;;;;;;2244583;61;1038;-89
2021/12/29 12:29:34;417955.00;1.39;720.67;0.00;0.00;0.62;;;;;15.20;1.00;;;;;;2241349;61;1020;-90
2021/12/29 12:32:12;509324.00;1.70;877.88;0.00;0.00;0.62;;;;;15.10;1.00;;;;;;2245316;61;974;-90
2021/12/29 12:34:52;683716.00;2.28;1179.01;26478.00;0.09;46.49;;;;;15.40;1.00;;;;;;2247808;61;983;-88
2021/12/29 12:37:23;819562.00;2.73;1415.26;41777.00;0.14;72.96;;;;;15.40;1.00;;;;;;2247923;61;996;-89
2021/12/29 12:40:02;473617.00;1.58;816.41;0.00;0.00;0.62;;;;;15.40;1.00;;;;;;2251621;61;1435;-90
2021/12/29 12:42:34;425380.00;1.42;733.44;17327.00;0.06;30.64;;;;;15.40;1.00;;;;;;2255857;61;1037;-90
2021/12/29 12:45:02;752386.00;2.51;1298.21;55344.00;0.18;96.43;;;;;15.40;1.00;;;;;;2247742;61;1928;-90
2021/12/29 12:47:32;462894.00;1.54;797.96;0.00;0.00;0.62;;;;;15.40;1.00;;;;;;2245707;61;1008;-90
2021/12/29 12:50:01;561204.00;1.87;967.28;0.00;0.00;0.62;;;;;15.20;1.00;;;;;;2251503;61;1408;-89
2021/12/29 12:52:41;572286.00;1.91;986.39;52186.00;0.17;90.97;;;;;15.30;1.00;;;;;;2255894;61;1065;-91
2021/12/29 12:55:12;621336.00;2.07;1071.07;134396.00;0.45;232.91;;;;;15.30;1.00;;;;;;2255947;61;1052;-90
2021/12/29 12:57:44;766660.00;2.56;1323.04;130783.00;0.44;226.68;;;;;15.40;1.00;;;;;;2255972;61;980;-91
2021/12/29 13:00:21;642096.00;2.14;1106.96;82803.00;0.28;143.88;;;;;15.20;1.00;;;;;;2255891;61;1372;-91
2021/12/29 13:02:52;650459.00;2.17;1121.43;116881.00;0.39;202.70;;;;;15.20;1.00;;;;;;2258949;61;988;-90
2021/12/29 13:05:22;609645.00;2.03;1050.88;90764.00;0.30;157.63;;;;;15.20;1.00;;;;;;2256520;61;2001;-89
2021/12/29 13:08:01;1104304.00;3.68;1918.12;130492.00;0.43;226.18;;;;;15.00;1.00;;;;;;2267875;61;975;-90
2021/12/29 13:10:32;853923.00;2.85;1475.33;93597.00;0.31;162.52;;;;;14.90;1.00;;;;;;2259528;61;1364;-91